Time;durP1;ratioP1;P1;durP2;ratioP2;P2;SDS_P1;SDS_P2;PMS_P1;PMS_P2;Temp;Humidity;BMP_temperature;BMP_pressure;BME280_temperature;BME280_humidity;BME280_pressure;Samples;Min_cycle;Max_cycle;Signal;HPM_P1;HPM_P2
2021/11/27 00:00:21;;;;;;;83.05;17.30;;;7.60;91.90;;;;;;5030212;28;20024;-60
2021/11/27 00:02:47;;;;;;;75.07;16.05;;;7.60;91.90;;;;;;5011725;28;20381;-60
2021/11/27 00:05:12;;;;;;;99.03;17.92;;;7.60;91.90;;;;;;5045264;28;20102;-60
2021/11/27 00:07:38;;;;;;;67.90;15.98;;;7.50;91.80;;;;;;5014414;28;20461;-60
2021/11/27 00:10:04;;;;;;;76.00;16.38;;;7.50;91.90;;;;;;5015235;28;20098;-61
2021/11/27 00:12:30;;;;;;;80.20;16.33;;;7.50;91.90;;;;;;5028770;28;20825;-60
2021/11/27 00:14:56;;;;;;;75.22;17.00;;;7.50;91.90;;;;;;5012820;28;20025;-60
2021/11/27 00:17:22;;;;;;;59.50;14.63;;;7.50;91.90;;;;;;5028763;28;20047;-60
2021/11/27 00:19:47;;;;;;;84.97;15.52;;;7.50;91.90;;;;;;5029661;28;20052;-60
2021/11/27 00:22:13;;;;;;;78.70;17.35;;;7.40;91.90;;;;;;5031247;28;20056;-60
2021/11/27 00:24:38;;;;;;;66.20;15.30;;;7.50;91.90;;;;;;5013863;28;20491;-60
2021/11/27 00:27:04;;;;;;;63.60;15.52;;;7.40;91.90;;;;;;5011814;28;20025;-61
2021/11/27 00:29:30;;;;;;;72.32;15.35;;;7.40;91.90;;;;;;5012335;28;20126;-60
2021/11/27 00:31:55;;;;;;;60.85;14.77;;;7.40;91.80;;;;;;5045738;28;20040;-60
2021/11/27 00:34:21;;;;;;;70.85;15.43;;;7.40;91.80;;;;;;5030019;28;20040;-60
2021/11/27 00:36:47;;;;;;;67.78;16.67;;;7.40;91.80;;;;;;5012273;28;20032;-60
2021/11/27 00:39:13;;;;;;;53.58;14.55;;;7.40;91.80;;;;;;5013832;28;20526;-61
2021/11/27 00:41:38;;;;;;;65.70;13.52;;;7.40;91.70;;;;;;5011941;28;20021;-61
2021/11/27 00:44:04;;;;;;;58.17;15.20;;;7.40;91.70;;;;;;5011142;28;20121;-60
2021/11/27 00:46:30;;;;;;;58.10;14.40;;;7.40;91.70;;;;;;5030413;28;20045;-60
2021/11/27 00:48:55;;;;;;;70.10;15.43;;;7.30;91.70;;;;;;5030044;28;20041;-60
2021/11/27 00:51:22;;;;;;;64.72;13.65;;;7.30;91.70;;;;;;5029114;28;20033;-60
2021/11/27 00:53:48;;;;;;;73.43;15.35;;;7.30;91.70;;;;;;5028776;28;20028;-60
2021/11/27 00:56:14;;;;;;;59.28;14.70;;;7.30;91.70;;;;;;5028988;28;20037;-61
2021/11/27 00:58:40;;;;;;;54.17;13.82;;;7.30;91.70;;;;;;5013343;28;20032;-60
2021/11/27 01:01:15;;;;;;;43.97;13.43;;;7.30;91.60;;;;;;5013240;28;20408;-60
2021/11/27 01:03:43;;;;;;;52.10;12.80;;;7.30;91.60;;;;;;5028256;28;20052;-60
2021/11/27 01:06:10;;;;;;;48.50;12.55;;;7.30;91.60;;;;;;5012247;28;21309;-60
2021/11/27 01:08:35;;;;;;;54.63;13.35;;;7.40;91.60;;;;;;5021560;28;20077;-61
2021/11/27 01:11:08;;;;;;;67.13;14.30;;;7.30;91.60;;;;;;5028634;28;20155;-60
2021/11/27 01:13:34;;;;;;;45.80;12.75;;;7.20;91.60;;;;;;5048133;28;20037;-61
2021/11/27 01:16:05;;;;;;;52.20;12.93;;;7.20;91.60;;;;;;5029156;28;20092;-60
2021/11/27 01:18:30;;;;;;;45.70;12.88;;;7.20;91.60;;;;;;5011950;28;20032;-65
2021/11/27 01:20:58;;;;;;;44.55;12.00;;;7.20;91.60;;;;;;5028439;28;20021;-60
2021/11/27 01:23:24;;;;;;;41.78;11.20;;;7.20;91.50;;;;;;5012171;28;20041;-60
2021/11/27 01:25:50;;;;;;;40.05;11.70;;;7.20;91.50;;;;;;5046236;28;20048;-60
2021/11/27 01:28:16;;;;;;;37.42;10.30;;;7.20;91.50;;;;;;5019847;28;20150;-60
2021/11/27 01:30:46;;;;;;;33.92;12.05;;;7.20;91.50;;;;;;5010598;28;20470;-60
2021/11/27 01:33:12;;;;;;;50.40;12.13;;;7.20;91.50;;;;;;5027240;28;20127;-60
2021/11/27 01:35:38;;;;;;;46.80;12.07;;;7.20;91.50;;;;;;5044479;28;20124;-60
2021/11/27 01:38:03;;;;;;;34.22;11.30;;;7.20;91.50;;;;;;5013457;28;20021;-61
2021/11/27 01:40:29;;;;;;;32.95;12.18;;;7.20;91.50;;;;;;5011792;28;20581;-61
2021/11/27 01:42:54;;;;;;;42.53;11.27;;;7.20;91.50;;;;;;5044254;28;20017;-60
2021/11/27 01:45:20;;;;;;;46.90;10.73;;;7.20;91.50;;;;;;5026160;28;20059;-60
2021/11/27 01:47:52;;;;;;;44.88;12.20;;;7.10;91.50;;;;;;5043226;28;20029;-61
2021/11/27 01:50:17;;;;;;;40.15;11.15;;;7.10;91.50;;;;;;5026631;28;20123;-61
2021/11/27 01:52:43;;;;;;;31.27;10.15;;;7.10;91.50;;;;;;5012873;28;20024;-61
2021/11/27 01:55:09;;;;;;;37.78;10.82;;;7.10;91.50;;;;;;5027103;28;20033;-60
2021/11/27 01:57:34;;;;;;;36.35;10.40;;;7.10;91.40;;;;;;5026923;28;20110;-60
2021/11/27 02:00:00;;;;;;;43.03;10.93;;;7.10;91.40;;;;;;5026522;28;20025;-61
2021/11/27 02:02:26;;;;;;;59.58;11.63;;;7.10;91.40;;;;;;5008964;28;20041;-60
2021/11/27 02:04:51;;;;;;;74.22;14.43;;;7.10;91.40;;;;;;5010260;28;20060;-60
2021/11/27 02:07:17;;;;;;;83.38;14.23;;;7.10;91.50;;;;;;5026237;28;20036;-61
2021/11/27 02:09:43;;;;;;;67.93;13.95;;;7.10;91.50;;;;;;5010705;28;20025;-60
2021/11/27 02:12:09;;;;;;;55.10;11.88;;;7.10;91.50;;;;;;5010277;28;20037;-60
2021/11/27 02:14:35;;;;;;;63.25;12.23;;;7.10;91.50;;;;;;5010259;28;20056;-60
2021/11/27 02:17:01;;;;;;;94.70;14.27;;;7.00;91.50;;;;;;5010690;28;20499;-60
2021/11/27 02:19:26;;;;;;;66.68;12.95;;;7.10;91.60;;;;;;5027159;28;20427;-60
2021/11/27 02:21:52;;;;;;;59.67;12.85;;;7.00;91.50;;;;;;5027146;28;20166;-60
2021/11/27 02:24:18;;;;;;;63.55;13.45;;;7.00;91.50;;;;;;5039970;28;20152;-60
2021/11/27 02:26:44;;;;;;;46.85;11.25;;;7.00;91.50;;;;;;5026602;28;20747;-60
2021/11/27 02:29:12;;;;;;;57.53;11.23;;;7.00;91.60;;;;;;5010118;28;20514;-60
2021/11/27 02:31:37;;;;;;;58.03;12.10;;;7.00;91.50;;;;;;5026894;28;20021;-60
2021/11/27 02:34:04;;;;;;;48.25;10.65;;;7.00;91.60;;;;;;5011563;28;20086;-60
2021/11/27 02:36:30;;;;;;;51.72;11.35;;;7.00;91.50;;;;;;5025738;28;20057;-61
2021/11/27 02:38:56;;;;;;;46.30;11.93;;;7.00;91.50;;;;;;5011321;28;20059;-61
2021/11/27 02:41:22;;;;;;;43.55;10.18;;;7.00;91.50;;;;;;5010945;28;20063;-61
2021/11/27 02:43:47;;;;;;;41.40;11.27;;;7.00;91.50;;;;;;5027666;28;20032;-60
2021/11/27 02:46:13;;;;;;;43.90;10.15;;;7.00;91.50;;;;;;5011114;28;20036;-61
2021/11/27 02:48:39;;;;;;;39.10;10.05;;;7.00;91.40;;;;;;5026078;28;20038;-60
2021/11/27 02:51:04;;;;;;;49.83;11.30;;;7.00;91.40;;;;;;5024604;28;20129;-60
2021/11/27 02:53:30;;;;;;;42.47;10.63;;;7.00;91.50;;;;;;5009088;28;20735;-60
2021/11/27 02:55:55;;;;;;;44.08;9.98;;;7.00;91.50;;;;;;5009621;28;20025;-60
2021/11/27 02:58:21;;;;;;;42.53;11.18;;;7.00;91.50;;;;;;5010374;28;20045;-61
2021/11/27 03:00:47;;;;;;;46.45;9.95;;;7.00;91.50;;;;;;5058250;28;20024;-60
2021/11/27 03:03:13;;;;;;;41.70;9.82;;;7.00;91.50;;;;;;5028413;28;20040;-60
2021/11/27 03:05:38;;;;;;;51.55;11.05;;;7.00;91.50;;;;;;5012949;28;20036;-60
2021/11/27 03:08:04;;;;;;;40.08;10.07;;;7.00;91.50;;;;;;5013264;28;20490;-60
2021/11/27 03:10:30;;;;;;;58.47;11.35;;;7.00;91.50;;;;;;5014875;28;20037;-60
2021/11/27 03:12:55;;;;;;;45.38;10.48;;;7.00;91.50;;;;;;5029202;28;20044;-60
2021/11/27 03:15:21;;;;;;;36.10;10.38;;;7.00;91.40;;;;;;5030296;28;20067;-60
2021/11/27 03:17:46;;;;;;;47.85;11.40;;;7.00;91.40;;;;;;5029271;28;20073;-60
2021/11/27 03:20:13;;;;;;;31.67;10.63;;;6.90;91.40;;;;;;5029856;28;20127;-60
2021/11/27 03:22:39;;;;;;;51.70;10.40;;;7.00;91.40;;;;;;5030682;28;20384;-60
2021/11/27 03:25:05;;;;;;;43.00;10.80;;;7.00;91.50;;;;;;5030450;28;20025;-60
2021/11/27 03:27:30;;;;;;;39.15;10.00;;;7.00;91.60;;;;;;5016103;28;20901;-60
2021/11/27 03:29:56;;;;;;;34.08;10.52;;;6.90;91.60;;;;;;5013370;28;20062;-60
2021/11/27 03:32:22;;;;;;;37.58;10.15;;;6.90;91.60;;;;;;5029447;28;20058;-60
2021/11/27 03:34:48;;;;;;;37.22;10.45;;;6.90;91.70;;;;;;5013648;28;20040;-60
2021/11/27 03:37:13;;;;;;;37.60;9.68;;;6.90;91.60;;;;;;5030217;28;20486;-60
2021/11/27 03:39:39;;;;;;;39.42;9.75;;;6.90;91.70;;;;;;5029601;28;20033;-60
2021/11/27 03:42:06;;;;;;;36.40;9.02;;;6.90;91.70;;;;;;5027991;28;20499;-60
2021/11/27 03:44:32;;;;;;;34.03;10.55;;;6.90;91.70;;;;;;5028638;28;20067;-60
2021/11/27 03:46:59;;;;;;;27.85;9.27;;;6.90;91.80;;;;;;5012348;28;20083;-60
2021/11/27 03:49:26;;;;;;;34.58;9.93;;;6.90;91.80;;;;;;5013766;28;20039;-60
2021/11/27 03:51:51;;;;;;;27.70;9.90;;;6.90;91.80;;;;;;5029334;28;20472;-60
2021/11/27 03:54:17;;;;;;;36.65;10.90;;;6.90;91.80;;;;;;5013469;28;20051;-60
2021/11/27 03:56:42;;;;;;;27.85;10.65;;;6.90;91.80;;;;;;5028031;28;20136;-60
2021/11/27 03:59:08;;;;;;;30.75;10.40;;;6.90;91.70;;;;;;5029627;28;20056;-60
2021/11/27 04:01:33;;;;;;;28.25;8.90;;;6.90;91.60;;;;;;5045216;28;20386;-61
2021/11/27 04:03:59;;;;;;;33.85;10.52;;;6.90;91.60;;;;;;5027976;28;20044;-60
2021/11/27 04:06:25;;;;;;;26.50;9.73;;;6.90;91.60;;;;;;5028761;28;20514;-61
2021/11/27 04:08:50;;;;;;;33.85;9.90;;;6.90;91.60;;;;;;5045506;28;20515;-60
2021/11/27 04:11:16;;;;;;;35.28;9.30;;;6.90;91.70;;;;;;5012626;28;20029;-60
2021/11/27 04:13:41;;;;;;;33.03;10.18;;;6.90;91.60;;;;;;5029137;28;20602;-61
2021/11/27 04:16:07;;;;;;;35.03;9.50;;;6.90;91.60;;;;;;5013796;28;20017;-60
2021/11/27 04:18:32;;;;;;;27.95;9.52;;;6.90;91.60;;;;;;5031080;28;20097;-60
2021/11/27 04:20:58;;;;;;;27.60;9.35;;;6.90;91.60;;;;;;5016176;28;20118;-60
2021/11/27 04:23:24;;;;;;;20.80;8.82;;;6.90;91.80;;;;;;5031908;28;20074;-61
2021/11/27 04:25:50;;;;;;;21.45;7.60;;;6.90;91.50;;;;;;5047992;28;20041;-60
2021/11/27 04:28:16;;;;;;;29.85;9.00;;;6.90;91.50;;;;;;5017920;28;20032;-60
2021/11/27 04:30:41;;;;;;;25.40;8.63;;;6.90;91.50;;;;;;5017266;28;20024;-61
2021/11/27 04:33:07;;;;;;;30.73;8.82;;;6.80;91.60;;;;;;5016456;28;20032;-60
2021/11/27 04:35:33;;;;;;;17.45;8.25;;;6.80;91.70;;;;;;5032826;28;20694;-60
2021/11/27 04:37:58;;;;;;;22.67;8.00;;;6.80;91.70;;;;;;5015407;28;20474;-60
2021/11/27 04:40:24;;;;;;;25.00;8.35;;;6.80;91.70;;;;;;5033046;28;20029;-60
2021/11/27 04:42:49;;;;;;;17.60;8.48;;;6.80;91.70;;;;;;5033371;28;20396;-60
2021/11/27 04:45:15;;;;;;;22.05;8.43;;;6.80;91.80;;;;;;5031878;28;20021;-60
2021/11/27 04:47:41;;;;;;;23.58;8.18;;;6.80;91.90;;;;;;5027857;28;20485;-60
2021/11/27 04:50:07;;;;;;;27.17;8.35;;;6.90;92.00;;;;;;5010124;28;20052;-61
2021/11/27 04:52:33;;;;;;;24.70;7.93;;;6.90;92.00;;;;;;5013064;28;20116;-60
2021/11/27 04:54:58;;;;;;;21.20;7.82;;;6.90;92.20;;;;;;5047809;28;20540;-60
2021/11/27 04:57:24;;;;;;;17.92;7.10;;;6.90;92.30;;;;;;5015043;28;20761;-60
2021/11/27 04:59:49;;;;;;;20.40;7.30;;;6.90;92.50;;;;;;5013629;28;20478;-60
2021/11/27 05:02:15;;;;;;;21.55;7.45;;;6.90;92.10;;;;;;5028854;28;20195;-60
2021/11/27 05:04:41;;;;;;;27.52;7.88;;;6.90;92.10;;;;;;5028255;28;20131;-60
2021/11/27 05:07:07;;;;;;;13.98;7.40;;;6.90;92.20;;;;;;5030293;28;20035;-60
2021/11/27 05:09:32;;;;;;;18.17;7.13;;;6.80;92.10;;;;;;5010585;28;20107;-60
2021/11/27 05:11:58;;;;;;;21.05;7.85;;;6.80;92.10;;;;;;5026605;28;20025;-61
2021/11/27 05:14:23;;;;;;;20.90;6.82;;;6.80;92.00;;;;;;5019067;28;20036;-62
2021/11/27 05:16:49;;;;;;;20.60;7.22;;;6.80;92.10;;;;;;5043327;28;20028;-61
2021/11/27 05:19:15;;;;;;;24.45;7.35;;;6.70;92.10;;;;;;5008126;28;20267;-60
2021/11/27 05:21:40;;;;;;;15.57;7.43;;;6.80;92.20;;;;;;5028194;28;20024;-60
2021/11/27 05:24:06;;;;;;;14.82;6.32;;;6.80;92.20;;;;;;5010407;28;20136;-60
2021/11/27 05:26:31;;;;;;;16.25;7.00;;;6.80;92.20;;;;;;5009279;28;20031;-60
2021/11/27 05:28:57;;;;;;;19.90;7.18;;;6.80;92.20;;;;;;5025806;28;20108;-60
2021/11/27 05:31:23;;;;;;;18.05;7.03;;;6.70;92.20;;;;;;5026876;28;20032;-61
2021/11/27 05:36:28;;;;;;;19.42;7.63;;;6.70;92.20;;;;;;5031418;28;20503;-60
2021/11/27 05:38:54;;;;;;;16.65;6.70;;;6.70;92.20;;;;;;5010538;28;20017;-60
2021/11/27 05:41:19;;;;;;;16.30;6.97;;;6.70;92.20;;;;;;5029847;28;20032;-61
2021/11/27 05:43:45;;;;;;;13.38;6.68;;;6.70;92.20;;;;;;5027991;28;20435;-60
2021/11/27 05:46:11;;;;;;;20.05;7.30;;;6.70;92.10;;;;;;5029539;28;20020;-60
2021/11/27 05:48:36;;;;;;;14.35;6.70;;;6.70;92.10;;;;;;5028683;28;20107;-61
2021/11/27 05:51:02;;;;;;;13.82;7.25;;;6.70;92.10;;;;;;5011899;28;20116;-60
2021/11/27 05:53:27;;;;;;;13.90;6.70;;;6.70;92.10;;;;;;5029670;28;20181;-60
2021/11/27 05:55:53;;;;;;;16.60;7.22;;;6.70;92.10;;;;;;5012969;28;20024;-60
2021/11/27 05:58:19;;;;;;;22.80;8.13;;;6.70;92.00;;;;;;5014945;28;20047;-60
2021/11/27 06:00:45;;;;;;;19.45;8.25;;;6.70;92.00;;;;;;5015980;28;20036;-60
2021/11/27 06:03:10;;;;;;;15.57;8.27;;;6.70;92.00;;;;;;5045313;28;20041;-60
2021/11/27 06:05:36;;;;;;;14.93;8.50;;;6.70;92.10;;;;;;5009370;28;20033;-60
2021/11/27 06:08:02;;;;;;;27.27;8.52;;;6.60;92.10;;;;;;5012835;28;20083;-60
2021/11/27 06:10:28;;;;;;;18.17;8.38;;;6.70;92.10;;;;;;5027880;28;20075;-60
2021/11/27 06:12:53;;;;;;;20.08;7.75;;;6.60;92.10;;;;;;5046979;28;20063;-60
2021/11/27 06:15:19;;;;;;;17.67;7.88;;;6.60;92.10;;;;;;5013903;28;20479;-60
2021/11/27 06:17:44;;;;;;;18.23;8.10;;;6.60;92.10;;;;;;5010440;28;20040;-61
2021/11/27 06:20:10;;;;;;;11.15;6.93;;;6.60;92.10;;;;;;5009472;28;20931;-61
2021/11/27 06:22:36;;;;;;;18.30;7.13;;;6.60;92.10;;;;;;5010977;28;20082;-60
2021/11/27 06:25:01;;;;;;;23.17;7.88;;;6.60;92.10;;;;;;5030476;28;20024;-61
2021/11/27 06:27:27;;;;;;;20.58;7.45;;;6.60;92.10;;;;;;5044406;28;20040;-60
2021/11/27 06:29:52;;;;;;;22.33;7.00;;;6.60;92.10;;;;;;5029255;28;20471;-60
2021/11/27 06:32:23;;;;;;;16.23;7.43;;;6.60;92.10;;;;;;5025961;28;20032;-61
2021/11/27 06:34:49;;;;;;;17.55;7.63;;;6.60;92.10;;;;;;5027329;28;20734;-61
2021/11/27 06:37:15;;;;;;;27.70;7.60;;;6.60;92.10;;;;;;5013245;28;20646;-60
2021/11/27 06:39:40;;;;;;;80.13;11.27;;;6.60;92.10;;;;;;5045397;28;20115;-61
2021/11/27 06:42:06;;;;;;;255.82;22.63;;;6.60;92.10;;;;;;5044732;28;20113;-60
2021/11/27 06:44:32;;;;;;;270.13;23.48;;;6.60;92.10;;;;;;5011691;28;20030;-61
2021/11/27 06:46:58;;;;;;;143.93;17.27;;;6.60;92.10;;;;;;5027439;28;20078;-60
2021/11/27 06:49:24;;;;;;;120.63;14.27;;;6.60;92.10;;;;;;5027150;28;20041;-60
2021/11/27 06:51:49;;;;;;;102.40;14.55;;;6.60;92.10;;;;;;5009639;28;20055;-60
2021/11/27 06:54:15;;;;;;;133.75;14.75;;;6.60;92.10;;;;;;5044725;28;20575;-60
2021/11/27 06:56:40;;;;;;;116.13;14.43;;;6.60;92.00;;;;;;5010154;28;20036;-61
2021/11/27 06:59:06;;;;;;;208.90;19.35;;;6.60;92.00;;;;;;5028554;28;20044;-60
2021/11/27 07:01:31;;;;;;;229.45;21.83;;;6.60;92.00;;;;;;5027255;28;20039;-60
2021/11/27 07:03:57;;;;;;;162.30;17.05;;;6.60;92.00;;;;;;5043275;28;20055;-60
2021/11/27 07:06:23;;;;;;;156.63;18.10;;;6.60;92.10;;;;;;5011755;28;20064;-60
2021/11/27 07:08:49;;;;;;;154.50;16.95;;;6.60;92.10;;;;;;5012256;28;20060;-60
2021/11/27 07:11:15;;;;;;;162.23;17.95;;;6.60;92.00;;;;;;5012533;28;20148;-61
2021/11/27 07:13:40;;;;;;;114.40;15.73;;;6.60;92.00;;;;;;5011622;28;20028;-60
2021/11/27 07:16:06;;;;;;;149.48;17.35;;;6.60;92.00;;;;;;5011066;28;20025;-60
2021/11/27 07:18:31;;;;;;;125.28;15.60;;;6.60;92.00;;;;;;5010913;28;20029;-60
2021/11/27 07:20:57;;;;;;;129.40;15.05;;;6.60;92.00;;;;;;5026348;28;20060;-60
2021/11/27 07:23:22;;;;;;;109.60;13.93;;;6.60;92.00;;;;;;5012736;28;20074;-60
2021/11/27 07:25:48;;;;;;;106.32;15.43;;;6.60;92.00;;;;;;5027415;28;20402;-60
2021/11/27 07:28:14;;;;;;;116.60;15.18;;;6.60;92.00;;;;;;5009955;28;20056;-60
2021/11/27 07:30:39;;;;;;;114.93;14.27;;;6.60;92.00;;;;;;5046265;28;20024;-60
2021/11/27 07:33:05;;;;;;;111.10;15.13;;;6.60;92.00;;;;;;5041530;28;20640;-60
2021/11/27 07:35:31;;;;;;;101.32;15.07;;;6.60;92.00;;;;;;5022004;28;20432;-60
2021/11/27 07:37:56;;;;;;;111.82;14.48;;;6.60;92.00;;;;;;5011288;28;20078;-61
2021/11/27 07:40:22;;;;;;;102.60;13.27;;;6.60;92.10;;;;;;5011778;28;20128;-60
2021/11/27 07:42:50;;;;;;;108.47;14.38;;;6.60;92.00;;;;;;5011165;28;20515;-61
2021/11/27 07:45:16;;;;;;;90.95;12.85;;;6.60;92.00;;;;;;5028542;28;20036;-60
2021/11/27 07:47:42;;;;;;;103.50;13.65;;;6.60;92.00;;;;;;5044258;28;20084;-61
2021/11/27 07:50:08;;;;;;;82.43;12.23;;;6.60;92.00;;;;;;5016382;28;20372;-61
2021/11/27 07:52:34;;;;;;;95.57;13.57;;;6.60;92.00;;;;;;5011200;28;20125;-60
2021/11/27 07:54:59;;;;;;;92.85;15.13;;;6.60;92.00;;;;;;5029345;28;20864;-61
2021/11/27 07:57:25;;;;;;;114.03;13.80;;;6.60;92.00;;;;;;5030993;28;20104;-60
2021/11/27 07:59:50;;;;;;;71.72;11.57;;;6.60;92.00;;;;;;5032161;28;20113;-61
2021/11/27 08:02:16;;;;;;;78.72;11.95;;;6.60;91.90;;;;;;5030301;28;20070;-61
2021/11/27 08:04:41;;;;;;;87.80;11.95;;;6.60;91.90;;;;;;5029369;28;20593;-61
2021/11/27 08:07:07;;;;;;;85.45;12.63;;;6.60;92.00;;;;;;5019858;28;20340;-60
2021/11/27 08:09:32;;;;;;;88.35;12.10;;;6.60;91.90;;;;;;5032614;28;20094;-60
2021/11/27 08:11:58;;;;;;;85.38;13.15;;;6.60;91.90;;;;;;5017021;28;20306;-60
2021/11/27 08:14:28;;;;;;;67.15;10.80;;;6.60;91.80;;;;;;5015150;28;20035;-60
2021/11/27 08:16:53;;;;;;;91.43;12.57;;;6.60;91.90;;;;;;5013909;28;20017;-60
2021/11/27 08:19:19;;;;;;;74.32;12.32;;;6.60;91.90;;;;;;5029020;28;20036;-60
2021/11/27 08:21:44;;;;;;;65.55;13.05;;;6.60;91.90;;;;;;5013538;28;20281;-60
2021/11/27 08:24:10;;;;;;;65.82;12.38;;;6.60;91.90;;;;;;5032749;28;20132;-60
2021/11/27 08:26:35;;;;;;;56.40;10.40;;;6.60;91.90;;;;;;5028832;28;20146;-60
2021/11/27 08:29:01;;;;;;;90.20;12.82;;;6.60;92.00;;;;;;5013248;28;20123;-60
2021/11/27 08:31:26;;;;;;;62.70;11.52;;;6.60;92.00;;;;;;5014893;28;20047;-61
2021/11/27 08:33:52;;;;;;;68.75;13.48;;;6.60;92.00;;;;;;5028952;28;20044;-60
2021/11/27 08:36:18;;;;;;;74.88;11.75;;;6.60;92.10;;;;;;5012046;28;20031;-60
2021/11/27 08:38:43;;;;;;;64.20;10.48;;;6.50;92.00;;;;;;5031164;28;20051;-61
2021/11/27 08:41:09;;;;;;;45.47;10.25;;;6.50;92.00;;;;;;5013976;28;20052;-61
2021/11/27 08:43:36;;;;;;;49.88;10.68;;;6.50;92.00;;;;;;5013323;28;20020;-60
2021/11/27 08:46:02;;;;;;;81.10;12.27;;;6.60;92.00;;;;;;5008619;28;20031;-61
2021/11/27 08:48:27;;;;;;;68.25;11.40;;;6.60;92.00;;;;;;5013528;28;20045;-60
2021/11/27 08:50:53;;;;;;;71.85;11.13;;;6.60;91.90;;;;;;5030962;28;20020;-60
2021/11/27 08:53:18;;;;;;;69.55;11.15;;;6.60;92.00;;;;;;5028966;28;20036;-60
2021/11/27 08:55:44;;;;;;;53.95;10.57;;;6.60;92.00;;;;;;5034872;28;20064;-60
2021/11/27 08:58:09;;;;;;;61.75;11.70;;;6.60;92.00;;;;;;5061609;28;20089;-61
2021/11/27 09:00:35;;;;;;;55.90;10.35;;;6.60;92.00;;;;;;5012784;28;20484;-60
2021/11/27 09:03:00;;;;;;;60.80;11.07;;;6.60;92.20;;;;;;5012468;28;20060;-61
2021/11/27 09:05:26;;;;;;;54.00;9.85;;;6.60;91.90;;;;;;5011434;28;20070;-60
2021/11/27 09:07:52;;;;;;;46.78;11.27;;;6.60;91.90;;;;;;5011449;28;20031;-61
2021/11/27 09:10:17;;;;;;;65.00;10.45;;;6.60;91.90;;;;;;5046062;28;20604;-61
2021/11/27 09:12:43;;;;;;;52.85;10.90;;;6.60;91.90;;;;;;5009660;28;20044;-60
2021/11/27 09:15:09;;;;;;;60.10;9.25;;;6.60;91.90;;;;;;5027911;28;20119;-61
2021/11/27 09:17:34;;;;;;;48.78;10.43;;;6.70;91.90;;;;;;5012120;28;20387;-61
2021/11/27 09:20:00;;;;;;;57.13;9.70;;;6.60;91.90;;;;;;5026945;28;20020;-60
2021/11/27 09:22:25;;;;;;;52.72;9.95;;;6.70;91.90;;;;;;5012199;28;20012;-60
2021/11/27 09:24:51;;;;;;;40.60;8.20;;;6.70;91.80;;;;;;5011020;28;20028;-60
2021/11/27 09:27:17;;;;;;;38.47;8.40;;;6.70;91.80;;;;;;5027657;28;20037;-61
2021/11/27 09:29:42;;;;;;;57.05;9.50;;;6.70;91.80;;;;;;5059850;28;20025;-61
2021/11/27 09:32:09;;;;;;;60.75;10.25;;;6.70;91.80;;;;;;5010162;28;20269;-60
2021/11/27 09:34:35;;;;;;;46.35;9.57;;;6.70;91.80;;;;;;5028868;28;20479;-60
2021/11/27 09:37:01;;;;;;;49.90;9.60;;;6.70;91.90;;;;;;5026181;28;20081;-61
2021/11/27 09:39:27;;;;;;;48.25;9.20;;;6.70;91.90;;;;;;5024889;28;20438;-61
2021/11/27 09:41:52;;;;;;;49.22;9.48;;;6.70;92.00;;;;;;5011011;28;20027;-61
2021/11/27 09:44:18;;;;;;;74.97;11.07;;;6.70;92.00;;;;;;5045935;28;20032;-61
2021/11/27 09:46:45;;;;;;;61.63;11.45;;;6.80;92.00;;;;;;5027646;28;20020;-61
2021/11/27 09:49:14;;;;;;;65.15;11.13;;;6.80;92.10;;;;;;5027132;28;20185;-61
2021/11/27 09:51:39;;;;;;;86.65;11.30;;;6.80;92.10;;;;;;5023740;28;20045;-61
2021/11/27 09:54:06;;;;;;;70.68;11.10;;;6.80;92.10;;;;;;5012515;28;20040;-61
2021/11/27 09:56:32;;;;;;;67.93;12.40;;;6.80;92.10;;;;;;5025432;28;20045;-60
2021/11/27 09:58:58;;;;;;;98.63;14.27;;;6.90;92.30;;;;;;5027927;28;20025;-61
2021/11/27 10:01:25;;;;;;;74.10;12.32;;;6.90;92.40;;;;;;5044724;28;20035;-61
2021/11/27 10:04:01;;;;;;;126.35;15.80;;;6.90;92.50;;;;;;5025627;28;20040;-61
2021/11/27 10:06:38;;;;;;;233.18;21.73;;;7.00;92.50;;;;;;5012255;28;20431;-62
2021/11/27 10:09:08;;;;;;;176.63;19.38;;;7.00;92.50;;;;;;5026217;28;20149;-61
2021/11/27 10:11:35;;;;;;;121.47;17.25;;;6.90;92.40;;;;;;5057952;28;20041;-61
2021/11/27 10:14:00;;;;;;;145.70;20.73;;;7.10;92.50;;;;;;5027387;28;20090;-61
2021/11/27 10:16:26;;;;;;;123.80;16.58;;;7.20;92.60;;;;;;5027447;28;20029;-62
2021/11/27 10:19:10;;;;;;;130.57;17.15;;;7.20;92.60;;;;;;5028203;28;20449;-62
2021/11/27 10:21:37;;;;;;;140.02;16.73;;;7.20;92.90;;;;;;5044454;28;20032;-63
2021/11/27 10:24:26;;;;;;;162.27;20.10;;;7.30;92.60;;;;;;5046028;28;20025;-62
2021/11/27 10:26:52;;;;;;;141.38;18.10;;;7.30;92.60;;;;;;5029920;28;20037;-61
2021/11/27 10:29:25;;;;;;;140.77;17.98;;;7.40;92.60;;;;;;5025275;28;20035;-61
2021/11/27 10:32:05;;;;;;;160.00;17.42;;;7.40;92.70;;;;;;5042631;28;20046;-61
2021/11/27 10:34:31;;;;;;;142.52;18.88;;;7.50;92.70;;;;;;5029209;28;20128;-64
2021/11/27 10:36:56;;;;;;;190.52;19.05;;;7.50;92.70;;;;;;5025140;28;20096;-62
2021/11/27 10:39:22;;;;;;;164.75;18.90;;;7.60;92.70;;;;;;5025881;28;20064;-61
2021/11/27 10:42:02;;;;;;;170.40;20.42;;;7.60;92.70;;;;;;5025335;28;20020;-62
2021/11/27 10:44:29;;;;;;;215.10;21.08;;;7.60;92.70;;;;;;5023201;28;20512;-62
2021/11/27 10:47:10;;;;;;;159.48;17.83;;;7.70;92.80;;;;;;5057714;28;20123;-62
2021/11/27 10:49:36;;;;;;;192.77;21.48;;;7.70;92.80;;;;;;5013385;28;20032;-61
2021/11/27 10:52:07;;;;;;;187.65;21.63;;;7.70;93.00;;;;;;5028407;28;20396;-62
2021/11/27 10:54:45;;;;;;;191.07;22.38;;;7.80;93.00;;;;;;5008871;28;20077;-62
2021/11/27 10:57:28;;;;;;;194.15;23.80;;;7.80;93.10;;;;;;5041535;28;20039;-62
2021/11/27 10:59:54;;;;;;;230.40;25.60;;;7.80;93.10;;;;;;5007223;28;20606;-61
2021/11/27 11:02:22;;;;;;;168.18;23.27;;;7.80;92.90;;;;;;5007333;28;20479;-62
2021/11/27 11:04:59;;;;;;;377.30;36.25;;;7.80;92.90;;;;;;5059546;28;20044;-61
2021/11/27 11:07:27;;;;;;;202.23;22.00;;;7.80;92.80;;;;;;5009121;28;20439;-61
2021/11/27 11:10:11;;;;;;;200.80;20.08;;;7.80;92.90;;;;;;5009808;28;20051;-62
2021/11/27 11:12:44;;;;;;;173.35;19.33;;;7.80;92.90;;;;;;5039101;28;20036;-63
2021/11/27 11:15:13;;;;;;;157.40;17.80;;;7.80;92.90;;;;;;5022623;28;20123;-62
2021/11/27 11:17:39;;;;;;;177.85;19.63;;;7.80;92.90;;;;;;5038027;28;20092;-61
2021/11/27 11:20:19;;;;;;;137.45;18.20;;;7.80;93.00;;;;;;5022733;28;20597;-62
2021/11/27 11:23:11;;;;;;;248.13;26.85;;;7.80;93.10;;;;;;5023060;28;20024;-62
2021/11/27 11:25:39;;;;;;;199.73;20.02;;;7.80;93.20;;;;;;5060043;28;20098;-61
2021/11/27 11:28:12;;;;;;;193.20;20.50;;;7.90;93.30;;;;;;5008756;28;20036;-61
2021/11/27 11:30:39;;;;;;;220.18;23.65;;;7.90;93.40;;;;;;5022281;28;20029;-62
2021/11/27 11:33:05;;;;;;;194.90;24.70;;;7.90;93.50;;;;;;5041534;28;20025;-61
2021/11/27 11:35:31;;;;;;;193.10;23.70;;;7.90;93.50;;;;;;5040323;28;20090;-61
2021/11/27 11:37:57;;;;;;;160.52;21.48;;;8.00;93.60;;;;;;5027588;28;20095;-61
2021/11/27 11:40:23;;;;;;;171.50;20.88;;;8.00;93.50;;;;;;5025185;28;20135;-62
2021/11/27 11:42:48;;;;;;;179.23;19.73;;;8.00;93.40;;;;;;5045496;28;20025;-61
2021/11/27 11:45:14;;;;;;;179.38;20.17;;;8.10;93.50;;;;;;5009265;28;20172;-62
2021/11/27 11:47:40;;;;;;;191.57;19.63;;;8.00;93.50;;;;;;5004224;28;20104;-61
2021/11/27 11:50:07;;;;;;;142.25;19.40;;;8.00;93.40;;;;;;5009822;28;20057;-61
2021/11/27 11:52:35;;;;;;;194.95;24.55;;;8.10;93.40;;;;;;5018730;28;20324;-61
2021/11/27 11:55:06;;;;;;;192.73;22.65;;;8.00;93.50;;;;;;5025146;28;20215;-60
2021/11/27 11:57:52;;;;;;;147.50;18.23;;;8.10;93.50;;;;;;5021284;28;20489;-61
2021/11/27 12:00:30;;;;;;;180.18;19.98;;;8.00;93.50;;;;;;5028337;28;20037;-61
2021/11/27 12:03:09;;;;;;;188.77;21.08;;;8.10;93.50;;;;;;5058197;28;20046;-61
2021/11/27 12:05:58;;;;;;;167.10;18.73;;;8.10;93.40;;;;;;5011045;28;20037;-62
2021/11/27 12:08:49;;;;;;;174.25;21.55;;;8.10;93.50;;;;;;5044967;28;20051;-61
2021/11/27 12:11:52;;;;;;;191.98;23.88;;;8.10;93.60;;;;;;5042152;28;20025;-61
2021/11/27 12:14:24;;;;;;;182.30;21.98;;;8.10;93.50;;;;;;5002294;28;20029;-62
2021/11/27 12:17:14;;;;;;;177.77;21.50;;;8.10;93.60;;;;;;5040035;28;20041;-61
2021/11/27 12:19:43;;;;;;;195.90;22.17;;;8.10;93.50;;;;;;5059091;28;20031;-62
2021/11/27 12:22:23;;;;;;;191.40;20.67;;;8.10;93.50;;;;;;5059122;28;20098;-62
2021/11/27 12:25:11;;;;;;;171.57;19.38;;;8.10;93.50;;;;;;5060187;28;20029;-62
2021/11/27 12:27:59;;;;;;;182.38;22.15;;;8.20;93.40;;;;;;5043801;28;20020;-62
2021/11/27 12:30:29;;;;;;;206.80;20.58;;;8.20;93.40;;;;;;5060497;28;20703;-62
2021/11/27 12:32:54;;;;;;;172.98;20.90;;;8.20;93.40;;;;;;5043286;28;20653;-61
2021/11/27 12:35:26;;;;;;;191.85;22.75;;;8.20;93.50;;;;;;5011292;28;20024;-61
2021/11/27 12:38:15;;;;;;;185.73;21.25;;;8.20;93.60;;;;;;5039028;28;20512;-61